• Join FlightAware (Why Join?)
  • Login
  • US Flag 
07:55AM EST


 

Airport Tracker/Info


-or-


 

Live Flight TrackerFlight Track Log ✈ N847NG ✈ 26-Apr-2014 ✈ KLEX - KTEB

Flight Track Log - Related Links

Times and Time Zones

All times are in EDT time to prevent confusion due to time zone crossing. See the N847NG flight status page for this flight to view local times or setup timezone preferences in your user account.

Time Position Orientation Groundspeed Altitude Reporting Facility
EDT Latitude Longitude Course Direction KTS MPH feet Rate Location/Type
01:05PM 37.9764 -84.6756 90° East 306 352 4,800  Level Indianapolis Center
01:06PM 37.9300 -84.6194 136° Southeast 276 318 7,700 2,700 Climbing Indianapolis Center
01:08PM 37.9281 -84.5078 91° East 295 339 10,400 2,580 Climbing Indianapolis Center
01:09PM 37.9250 -84.3856 92° East 334 384 13,100 2,520 Climbing Indianapolis Center
01:10PM 37.9200 -84.2392 92° East 353 406 15,700 2,160 Climbing Indianapolis Center
01:11PM 37.9833 -83.8626 90° East  Level FlightAware Approximate
01:11PM 37.9150 -84.1072 93° East 364 419 17,600  Level Indianapolis Center
01:12PM 37.9119 -83.9708 92° East 379 436 19,000 660 Climbing Indianapolis Center
01:13PM 37.9069 -83.8358 93° East 383 441 19,000  Level Indianapolis Center
01:14PM 37.9019 -83.7006 93° East 383 441 19,000 300 Level Indianapolis Center
01:15PM 37.8964 -83.5442 93° East 383 441 19,700 1,200 Climbing Indianapolis Center
01:16PM 37.8908 -83.4053 93° East 388 447 21,500 1,740 Climbing Indianapolis Center
01:17PM 37.8867 -83.2639 92° East 396 456 23,400 1,740 Climbing Indianapolis Center
01:18PM 37.8800 -83.1194 93° East 403 464 25,200 1,800 Climbing Indianapolis Center
01:19PM 37.8742 -82.9689 93° East 419 482 27,200 2,160 Climbing Indianapolis Center
01:20PM 37.8675 -82.8225 93° East 420 483 29,700 2,400 Climbing Indianapolis Center
01:21PM 37.8606 -82.6814 94° East 408 470 32,200 1,560 Climbing Indianapolis Center
01:22PM 37.8542 -82.5125 93° East 407 468 33,000 840 Climbing Indianapolis Center
01:23PM 37.8461 -82.3497 94° East 442 509 34,000 1,080 Climbing Indianapolis Center
01:24PM 37.8378 -82.1817 94° East 466 536 35,300 1,200 Climbing Indianapolis Center
01:25PM 37.8292 -82.0147 94° East 469 540 36,500 1,140 Climbing Indianapolis Center
01:26PM 37.8206 -81.8486 94° East 470 541 37,700 1,140 Climbing Indianapolis Center
01:27PM 37.8300 -81.6881 86° East 458 527 38,900 1,200 Climbing Indianapolis Center
01:28PM 37.8425 -81.5175 85° East 451 519 40,200 960 Climbing Indianapolis Center
01:29PM 37.8519 -81.3653 85° East 443 510 41,000 360 Climbing Indianapolis Center
01:30PM 37.8619 -81.2078 85° East 443 510 41,000  Level Indianapolis Center
01:31PM 37.8708 -81.0453 86° East 456 525 41,000  Level Indianapolis Center
01:32PM 37.8833 -80.8531 85° East 459 528 41,000  Level Indianapolis Center
01:33PM 37.8919 -80.6994 86° East 447 514 41,000  Level Indianapolis Center
01:34PM 37.9006 -80.5461 86° East 444 511 41,000  Level Indianapolis Center
01:36PM 37.9108 -80.3822 85° East 442 509 41,000  Level Washington Center
01:37PM 37.9214 -80.2022 86° East 440 506 41,000  Level Washington Center
01:38PM 37.9303 -80.0483 86° East 443 510 41,000  Level Washington Center
01:39PM 37.9378 -79.8906 87° East 454 522 41,000  Level Washington Center
01:40PM 37.9447 -79.7289 87° East 467 537 41,000  Level Washington Center
01:41PM 37.9547 -79.5392 86° East 462 532 41,000  Level Washington Center
01:42PM 37.9619 -79.3861 87° East 447 514 41,000  Level Washington Center
01:43PM 37.9697 -79.2286 86° East 458 527 41,000  Level Washington Center
01:44PM 37.9775 -79.0714 86° East 458 527 41,000  Level Washington Center
01:45PM 37.9853 -78.8881 87° East 450 518 41,000  Level Washington Center
01:46PM 37.9908 -78.7339 87° East 448 516 41,000  Level Washington Center
01:47PM 37.9967 -78.5822 87° East 446 513 41,000 -720 Level Washington Center
01:48PM 38.0047 -78.3981 87° East 447 514 39,600 -1,380 Descending Washington Center
01:49PM 38.0111 -78.2431 87° East 450 518 38,300 -1,260 Descending Washington Center
01:50PM 38.0442 -78.0936 74° East 444 511 37,100 -660 Descending Washington Center
01:51PM 38.1056 -77.9703 58° Northeast 420 483 37,000 -60 Descending Washington Center
01:52PM 38.1803 -77.8222 57° Northeast 416 479 37,000  Level Washington Center
01:53PM 38.2442 -77.6917 58° Northeast 430 495 37,000  Level Washington Center
01:54PM 38.3097 -77.5617 57° Northeast 435 501 37,000  Level Washington Center
01:55PM 38.3847 -77.4442 51° Northeast 435 501 37,000 -60 Level Washington Center
01:56PM 38.4681 -77.3403 44° Northeast 427 491 36,900 -600 Descending Washington Center
01:57PM 38.5494 -77.2358 45° Northeast 423 487 35,800 -1,200 Descending Washington Center
01:58PM 38.6447 -77.1142 45° Northeast 412 474 34,500 -1,260 Descending Washington Center
01:59PM 38.7247 -77.0103 45° Northeast 409 471 33,200 -1,500 Descending Washington Center
02:00PM 38.8058 -76.9064 45° Northeast 414 476 31,500 -1,560 Descending Washington Center
02:01PM 38.8875 -76.8003 45° Northeast 417 480 30,000 -1,500 Descending Washington Center
02:02PM 38.9700 -76.6939 45° Northeast 419 482 28,500 -1,620 Descending Washington Center
02:03PM 39.0656 -76.5683 46° Northeast 416 479 26,700 -1,680 Descending Washington Center
02:04PM 39.1458 -76.4644 45° Northeast 414 476 25,200 -1,320 Descending Washington Center
02:06PM 39.2214 -76.3603 47° Northeast 405 466 24,000 -600 Descending Washington Center
02:07PM 39.2972 -76.2619 45° Northeast 392 451 24,000 -300 Level Washington Center
02:08PM 39.3828 -76.1519 45° Northeast 393 452 23,400 -1,260 Descending Washington Center
02:09PM 39.4569 -76.0517 46° Northeast 390 449 21,500 -1,860 Descending Washington Center
02:10PM 39.5297 -75.9553 46° Northeast 381 438 19,600 -1,860 Descending Washington Center
02:11PM 39.6008 -75.8575 47° Northeast 378 435 17,800 -1,740 Descending Washington Center
02:12PM 39.6717 -75.7642 45° Northeast 369 425 16,000 -1,920 Descending Washington Center
02:12PM 39.7333 -75.6833 45° Northeast 356 410 14,600 -1,920 Descending Philadelphia TRACON
02:13PM 39.8000 -75.6000 44° Northeast 344 396 13,100 -780 Descending Philadelphia TRACON
02:14PM 39.8667 -75.5333 37° Northeast 335 386 13,100  Level Philadelphia TRACON
02:15PM 39.9500 -75.4667 32° Northeast 333 383 13,100  Level Philadelphia TRACON
02:16PM 40.0333 -75.3833 37° Northeast 334 384 13,100  Level Philadelphia TRACON
02:17PM 40.1000 -75.3167 37° Northeast 326 375 13,100 -300 Level Philadelphia TRACON
02:18PM 40.1667 -75.2500 37° Northeast 324 373 12,500 -900 Descending Philadelphia TRACON
02:19PM 40.2333 -75.2000 30° Northeast 290 334 11,400 -1,500 Descending Philadelphia TRACON
02:21PM 40.3500 -75.0833 37° Northeast 296 341 8,800 -1,680 Descending New York TRACON
02:22PM 40.4000 -75.0000 52° Northeast 294 338 7,000 -1,920 Descending New York TRACON
02:23PM 40.4500 -74.9333 45° Northeast 268 308 5,000 -1,980 Descending New York TRACON
02:24PM 40.5000 -74.8667 45° Northeast 261 300 3,100 -960 Descending New York TRACON
02:25PM 40.5333 -74.7833 62° Northeast 271 312 3,100  Level New York TRACON
02:26PM 40.5667 -74.6833 66° East 260 299 3,100  Level New York TRACON
02:27PM 40.6000 -74.6000 62° Northeast 266 306 3,100  Level New York TRACON
02:28PM 40.6333 -74.5167 62° Northeast 269 310 3,100  Level New York TRACON
02:29PM 40.6500 -74.4333 75° East 262 302 3,100 -240 Level New York TRACON
02:30PM 40.6833 -74.3500 62° Northeast 251 289 2,700 -540 Descending New York TRACON
02:31PM 40.7167 -74.2500 66° East 243 280 2,000 -540 Descending New York TRACON
02:32PM 40.7667 -74.2000 37° Northeast 228 262 1,600 -240 Descending New York TRACON
02:33PM 40.8000 -74.1500 49° Northeast 177 204 1,600 -360 Level New York TRACON
02:34PM 40.8167 -74.1000 66° East 131 151 900 -720 Descending New York TRACON
02:36PM 40.8500 -74.0500 57° Northeast  Level FlightAware Approximate